Time,TemperatureF,DewpointF,PressureIn,WindDirection,WindDirectionDegrees,WindSpeedMPH,WindSpeedGustMPH,Humidity,HourlyPrecipIn,Conditions,Clouds,dailyrainin,SolarRadiationWatts/m^2,SoftwareType,DateUTC
2013-01-11 00:00:00,42.2,39.2,30.35,East,97,0.0,0.0,89,0.00,,,0.00,0.00,VWS V14.01,2013-01-11 05:00:00,
2013-01-11 00:03:00,42.2,38.9,30.35,East,97,0.0,0.0,88,0.00,,,0.00,0.00,VWS V14.01,2013-01-11 05:03:00,
2013-01-11 00:08:00,42.3,39.0,30.35,East,97,0.0,1.0,88,0.00,,,0.00,0.00,VWS V14.01,2013-01-11 05:08:00,
2013-01-11 00:13:00,42.6,38.4,30.35,East,97,0.0,0.0,85,0.00,,,0.00,0.00,VWS V14.01,2013-01-11 05:13:00,
2013-01-11 00:18:00,42.9,37.8,30.35,East,97,0.0,0.0,82,0.00,,,0.00,0.00,VWS V14.01,2013-01-11 05:18:00,
2013-01-11 00:23:00,43.2,37.5,30.35,East,97,0.0,0.0,80,0.00,,,0.00,0.00,VWS V14.01,2013-01-11 05:23:00,
2013-01-11 00:28:00,43.5,37.8,30.35,East,97,0.0,0.0,80,0.00,,,0.00,0.00,VWS V14.01,2013-01-11 05:28:00,
2013-01-11 00:33:00,43.6,37.8,30.35,East,97,0.0,0.0,80,0.00,,,0.00,0.00,VWS V14.01,2013-01-11 05:33:00,
2013-01-11 00:38:00,43.8,37.4,30.35,East,97,2.0,2.0,78,0.00,,,0.00,0.00,VWS V14.01,2013-01-11 05:38:00,
2013-01-11 00:43:00,43.9,36.5,30.35,East,97,0.0,0.0,75,0.00,,,0.00,0.00,VWS V14.01,2013-01-11 05:43:00,
2013-01-11 00:48:00,44.1,36.7,30.34,East,97,0.0,0.0,75,0.00,,,0.00,0.00,VWS V14.01,2013-01-11 05:48:00,
2013-01-11 00:53:00,44.1,36.4,30.34,East,97,0.0,0.0,74,0.00,,,0.00,0.00,VWS V14.01,2013-01-11 05:53:00,
2013-01-11 00:58:00,44.2,35.4,30.34,East,97,0.0,2.0,71,0.00,,,0.00,0.00,VWS V14.01,2013-01-11 05:58:00,
2013-01-11 01:03:00,44.3,35.2,30.34,East,97,0.0,0.0,70,0.00,,,0.00,0.00,VWS V14.01,2013-01-11 06:03:00,
2013-01-11 01:08:00,44.6,35.1,30.34,East,97,0.0,0.0,69,0.00,,,0.00,0.00,VWS V14.01,2013-01-11 06:08:00,
2013-01-11 01:13:00,44.8,36.0,30.34,East,97,0.0,0.0,71,0.00,,,0.00,0.00,VWS V14.01,2013-01-11 06:13:00,
2013-01-11 01:18:00,44.9,36.4,30.33,East,97,0.0,0.0,72,0.00,,,0.00,0.00,VWS V14.01,2013-01-11 06:18:00,
2013-01-11 01:23:00,44.9,35.0,30.33,East,97,0.0,0.0,68,0.00,,,0.00,0.00,VWS V14.01,2013-01-11 06:23:00,
2013-01-11 01:28:00,45.1,35.2,30.33,East,97,0.0,0.0,68,0.00,,,0.00,0.00,VWS V14.01,2013-01-11 06:28:00,
2013-01-11 01:33:00,45.2,35.7,30.32,East,97,0.0,0.0,69,0.00,,,0.00,0.00,VWS V14.01,2013-01-11 06:33:00,
2013-01-11 01:38:00,45.2,34.5,30.32,East,97,0.0,0.0,66,0.00,,,0.00,0.00,VWS V14.01,2013-01-11 06:38:00,
2013-01-11 01:43:00,45.4,34.0,30.32,East,97,0.0,0.0,64,0.00,,,0.00,0.00,VWS V14.01,2013-01-11 06:43:00,
2013-01-11 01:48:00,45.4,33.6,30.32,East,97,0.0,0.0,63,0.00,,,0.00,0.00,VWS V14.01,2013-01-11 06:48:00,
2013-01-11 01:53:00,45.5,32.8,30.32,East,97,0.0,0.0,61,0.00,,,0.00,0.00,VWS V14.01,2013-01-11 06:53:00,
2013-01-11 01:58:00,45.7,33.0,30.32,East,84,0.0,2.0,61,0.00,,,0.00,0.00,VWS V14.01,2013-01-11 06:58:00,
2013-01-11 02:03:00,45.8,32.7,30.32,East,85,0.0,0.0,60,0.00,,,0.00,0.00,VWS V14.01,2013-01-11 07:03:00,
2013-01-11 02:08:00,46.0,32.5,30.32,East,85,0.0,0.0,59,0.00,,,0.00,0.00,VWS V14.01,2013-01-11 07:08:00,
2013-01-11 02:13:00,46.1,32.2,30.32,ESE,116,3.0,5.0,58,0.00,,,0.00,0.00,VWS V14.01,2013-01-11 07:13:00,
2013-01-11 02:18:00,46.2,32.2,30.32,ENE,61,2.0,3.0,58,0.00,,,0.00,0.00,VWS V14.01,2013-01-11 07:18:00,
2013-01-11 02:23:00,46.4,32.4,30.32,East,85,0.0,2.0,58,0.00,,,0.00,0.00,VWS V14.01,2013-01-11 07:23:00,
2013-01-11 02:28:00,46.4,32.0,30.32,East,85,0.0,0.0,57,0.00,,,0.00,0.00,VWS V14.01,2013-01-11 07:28:00,
2013-01-11 02:33:00,46.5,32.1,30.32,ESE,114,0.0,0.0,57,0.00,,,0.00,0.00,VWS V14.01,2013-01-11 07:33:00,
2013-01-11 02:38:00,46.5,32.1,30.32,ESE,114,0.0,2.0,57,0.00,,,0.00,0.00,VWS V14.01,2013-01-11 07:38:00,
2013-01-11 02:43:00,46.7,32.3,30.32,ESE,113,0.0,0.0,57,0.00,,,0.00,0.00,VWS V14.01,2013-01-11 07:43:00,
2013-01-11 02:48:00,46.7,31.9,30.32,ESE,113,0.0,0.0,56,0.00,,,0.00,0.00,VWS V14.01,2013-01-11 07:48:00,
2013-01-11 02:53:00,46.7,31.4,30.32,ESE,104,0.0,3.0,55,0.00,,,0.00,0.00,VWS V14.01,2013-01-11 07:53:00,
2013-01-11 02:58:00,46.8,31.5,30.32,East,89,4.0,4.0,55,0.00,,,0.00,0.00,VWS V14.01,2013-01-11 07:58:00,
2013-01-11 03:03:00,46.8,31.0,30.31,East,90,3.0,3.0,54,0.00,,,0.00,0.00,VWS V14.01,2013-01-11 08:03:00,
2013-01-11 03:08:00,46.8,31.0,30.31,ESE,104,1.0,1.0,54,0.00,,,0.00,0.00,VWS V14.01,2013-01-11 08:08:00,
2013-01-11 03:13:00,47.0,31.2,30.31,ESE,108,5.0,5.0,54,0.00,,,0.00,0.00,VWS V14.01,2013-01-11 08:13:00,
2013-01-11 03:18:00,47.0,30.3,30.30,East,94,0.0,0.0,52,0.00,,,0.00,0.00,VWS V14.01,2013-01-11 08:18:00,
2013-01-11 03:23:00,47.0,30.3,30.30,East,94,0.0,0.0,52,0.00,,,0.00,0.00,VWS V14.01,2013-01-11 08:23:00,
2013-01-11 03:28:00,47.1,30.4,30.30,East,94,0.0,0.0,52,0.00,,,0.00,0.00,VWS V14.01,2013-01-11 08:28:00,
2013-01-11 03:33:00,47.1,30.4,30.30,East,94,0.0,0.0,52,0.00,,,0.00,0.00,VWS V14.01,2013-01-11 08:33:00,
2013-01-11 03:38:00,47.1,30.9,30.30,ENE,59,0.0,3.0,53,0.00,,,0.00,0.00,VWS V14.01,2013-01-11 08:38:00,
2013-01-11 03:43:00,47.1,30.4,30.30,ESE,103,6.0,6.0,52,0.00,,,0.00,0.00,VWS V14.01,2013-01-11 08:43:00,
2013-01-11 03:48:00,47.1,30.9,30.28,ENE,60,0.0,0.0,53,0.00,,,0.00,0.00,VWS V14.01,2013-01-11 08:48:00,
2013-01-11 03:53:00,47.0,31.2,30.28,ENE,72,0.0,3.0,54,0.00,,,0.00,0.00,VWS V14.01,2013-01-11 08:53:00,
2013-01-11 03:58:00,47.0,31.2,30.28,East,80,3.0,4.0,54,0.00,,,0.00,0.00,VWS V14.01,2013-01-11 08:58:00,
2013-01-11 04:03:00,47.0,31.2,30.28,East,97,0.0,0.0,54,0.00,,,0.00,0.00,VWS V14.01,2013-01-11 09:03:00,
2013-01-11 04:08:00,46.8,31.0,30.28,ESE,106,0.0,0.0,54,0.00,,,0.00,0.00,VWS V14.01,2013-01-11 09:08:00,
2013-01-11 04:13:00,46.8,31.5,30.28,East,95,0.0,0.0,55,0.00,,,0.00,0.00,VWS V14.01,2013-01-11 09:13:00,
2013-01-11 04:18:00,46.8,31.5,30.28,East,94,2.0,3.0,55,0.00,,,0.00,0.00,VWS V14.01,2013-01-11 09:18:00,
2013-01-11 04:23:00,47.0,31.7,30.28,ENE,63,0.0,4.0,55,0.00,,,0.00,0.00,VWS V14.01,2013-01-11 09:23:00,
2013-01-11 04:28:00,47.0,31.7,30.28,East,96,3.0,3.0,55,0.00,,,0.00,0.00,VWS V14.01,2013-01-11 09:28:00,
2013-01-11 04:33:00,47.0,31.7,30.27,ENE,77,3.0,3.0,55,0.00,,,0.00,0.00,VWS V14.01,2013-01-11 09:33:00,
2013-01-11 04:38:00,47.0,31.2,30.27,ENE,68,3.0,3.0,54,0.00,,,0.00,0.00,VWS V14.01,2013-01-11 09:38:00,
2013-01-11 04:43:00,47.0,31.2,30.27,ENE,73,1.0,3.0,54,0.00,,,0.00,0.00,VWS V14.01,2013-01-11 09:43:00,
2013-01-11 04:48:00,47.0,31.2,30.25,ENE,74,0.0,3.0,54,0.00,,,0.00,0.00,VWS V14.01,2013-01-11 09:48:00,
2013-01-11 04:53:00,47.0,31.2,30.25,ENE,74,0.0,0.0,54,0.00,,,0.00,0.00,VWS V14.01,2013-01-11 09:53:00,
2013-01-11 04:58:00,47.0,30.8,30.25,ENE,74,3.0,3.0,53,0.00,,,0.00,0.00,VWS V14.01,2013-01-11 09:58:00,
2013-01-11 05:03:00,47.0,30.8,30.25,NNE,18,0.0,0.0,53,0.00,,,0.00,0.00,VWS V14.01,2013-01-11 10:03:00,
2013-01-11 05:08:00,47.0,31.2,30.25,ENE,70,0.0,3.0,54,0.00,,,0.00,0.00,VWS V14.01,2013-01-11 10:08:00,
2013-01-11 05:13:00,47.0,30.8,30.25,East,89,0.0,0.0,53,0.00,,,0.00,0.00,VWS V14.01,2013-01-11 10:13:00,
2013-01-11 05:18:00,47.0,30.8,30.25,NE,55,2.0,3.0,53,0.00,,,0.00,0.00,VWS V14.01,2013-01-11 10:18:00,
2013-01-11 05:23:00,47.0,30.8,30.25,NE,55,0.0,0.0,53,0.00,,,0.00,0.00,VWS V14.01,2013-01-11 10:23:00,
2013-01-11 05:28:00,47.0,30.3,30.25,ENE,73,0.0,0.0,52,0.00,,,0.00,0.00,VWS V14.01,2013-01-11 10:28:00,
2013-01-11 05:33:00,47.0,30.3,30.25,ENE,73,0.0,0.0,52,0.00,,,0.00,0.00,VWS V14.01,2013-01-11 10:33:00,
2013-01-11 05:38:00,47.1,30.4,30.25,ENE,73,0.0,0.0,52,0.00,,,0.00,0.00,VWS V14.01,2013-01-11 10:38:00,
2013-01-11 05:43:00,47.1,29.9,30.25,ENE,73,0.0,0.0,51,0.00,,,0.00,0.00,VWS V14.01,2013-01-11 10:43:00,
2013-01-11 05:48:00,47.1,30.4,30.25,ENE,73,0.0,0.0,52,0.00,,,0.00,0.00,VWS V14.01,2013-01-11 10:48:00,
2013-01-11 05:53:00,47.1,30.9,30.25,NNE,25,4.0,4.0,53,0.00,,,0.00,0.00,VWS V14.01,2013-01-11 10:53:00,
2013-01-11 05:58:00,47.1,30.4,30.25,North,11,0.0,0.0,52,0.00,,,0.00,0.00,VWS V14.01,2013-01-11 10:58:00,
2013-01-11 06:03:00,47.1,31.3,30.25,North,11,0.0,0.0,54,0.00,,,0.00,0.00,VWS V14.01,2013-01-11 11:03:00,
2013-01-11 06:08:00,47.1,31.8,30.25,North,11,0.0,0.0,55,0.00,,,0.00,0.00,VWS V14.01,2013-01-11 11:08:00,
2013-01-11 06:13:00,47.0,32.6,30.25,North,11,0.0,0.0,57,0.00,,,0.00,0.00,VWS V14.01,2013-01-11 11:13:00,
2013-01-11 06:18:00,47.0,33.4,30.26,North,11,0.0,0.0,59,0.00,,,0.00,0.00,VWS V14.01,2013-01-11 11:18:00,
2013-01-11 06:23:00,46.7,34.0,30.26,North,11,0.0,0.0,61,0.00,,,0.00,0.00,VWS V14.01,2013-01-11 11:23:00,
2013-01-11 06:28:00,46.5,34.6,30.26,ENE,64,2.0,3.0,63,0.00,,,0.00,0.00,VWS V14.01,2013-01-11 11:28:00,
2013-01-11 06:33:00,46.4,34.9,30.25,East,94,0.0,2.0,64,0.00,,,0.00,0.00,VWS V14.01,2013-01-11 11:33:00,
2013-01-11 06:38:00,46.2,35.1,30.25,East,94,0.0,0.0,65,0.00,,,0.00,0.00,VWS V14.01,2013-01-11 11:38:00,
2013-01-11 06:43:00,46.1,35.4,30.25,East,94,0.0,0.0,66,0.00,,,0.00,0.00,VWS V14.01,2013-01-11 11:43:00,
2013-01-11 06:48:00,46.0,36.0,30.26,East,94,0.0,0.0,68,0.00,,,0.00,0.00,VWS V14.01,2013-01-11 11:48:00,
2013-01-11 06:53:00,45.8,35.8,30.26,East,94,0.0,0.0,68,0.00,,,0.00,0.00,VWS V14.01,2013-01-11 11:53:00,
2013-01-11 06:58:00,45.7,36.5,30.26,East,94,0.0,0.0,70,0.00,,,0.00,0.00,VWS V14.01,2013-01-11 11:58:00,
2013-01-11 07:03:00,45.7,36.8,30.27,East,94,0.0,0.0,71,0.00,,,0.00,0.00,VWS V14.01,2013-01-11 12:03:00,
2013-01-11 07:08:00,45.5,37.7,30.27,East,94,0.0,1.0,74,0.01,,,0.01,0.00,VWS V14.01,2013-01-11 12:08:00,
2013-01-11 07:13:00,45.2,38.1,30.27,East,94,0.0,0.0,76,0.01,,,0.01,0.00,VWS V14.01,2013-01-11 12:13:00,
2013-01-11 07:18:00,44.9,38.1,30.28,East,94,0.0,0.0,77,0.01,,,0.01,0.00,VWS V14.01,2013-01-11 12:18:00,
2013-01-11 07:23:00,44.8,38.7,30.28,East,94,0.0,0.0,79,0.02,,,0.02,0.00,VWS V14.01,2013-01-11 12:23:00,
2013-01-11 07:28:00,44.5,38.7,30.28,East,94,0.0,0.0,80,0.04,,,0.04,0.00,VWS V14.01,2013-01-11 12:28:00,
2013-01-11 07:33:00,44.2,39.1,30.28,East,94,0.0,0.0,82,0.04,,,0.04,0.00,VWS V14.01,2013-01-11 12:33:00,
2013-01-11 07:38:00,44.1,39.3,30.28,East,94,0.0,0.0,83,0.04,,,0.04,0.00,VWS V14.01,2013-01-11 12:38:00,
2013-01-11 07:43:00,43.8,39.3,30.28,East,94,0.0,0.0,84,0.04,,,0.04,5.00,VWS V14.01,2013-01-11 12:43:00,
2013-01-11 07:48:00,43.8,39.6,30.28,East,94,0.0,0.0,85,0.05,,,0.05,9.00,VWS V14.01,2013-01-11 12:48:00,
2013-01-11 07:53:00,43.6,39.7,30.28,East,94,0.0,0.0,86,0.05,,,0.05,16.00,VWS V14.01,2013-01-11 12:53:00,
2013-01-11 07:58:00,43.6,39.7,30.28,East,94,0.0,0.0,86,0.05,,,0.05,14.00,VWS V14.01,2013-01-11 12:58:00,
2013-01-11 08:03:00,43.6,40.0,30.27,East,94,0.0,0.0,87,0.05,,,0.05,11.00,VWS V14.01,2013-01-11 13:03:00,
2013-01-11 08:08:00,43.6,40.3,30.27,East,94,1.0,3.0,88,0.04,,,0.05,23.00,VWS V14.01,2013-01-11 13:08:00,
2013-01-11 08:13:00,43.6,40.3,30.27,NNE,27,0.0,0.0,88,0.05,,,0.06,14.00,VWS V14.01,2013-01-11 13:13:00,
2013-01-11 08:18:00,43.5,40.2,30.27,NNE,27,0.0,0.0,88,0.05,,,0.06,16.00,VWS V14.01,2013-01-11 13:18:00,
2013-01-11 08:23:00,43.5,40.2,30.27,NNE,27,0.0,0.0,88,0.04,,,0.06,12.00,VWS V14.01,2013-01-11 13:23:00,
2013-01-11 08:28:00,43.5,40.5,30.27,NNE,27,0.0,0.0,89,0.03,,,0.06,7.00,VWS V14.01,2013-01-11 13:28:00,
2013-01-11 08:33:00,43.5,40.5,30.26,NNE,27,0.0,0.0,89,0.02,,,0.06,9.00,VWS V14.01,2013-01-11 13:33:00,
2013-01-11 08:38:00,43.5,40.8,30.26,NNE,27,0.0,0.0,90,0.02,,,0.06,11.00,VWS V14.01,2013-01-11 13:38:00,
2013-01-11 08:43:00,43.5,40.8,30.26,NNE,26,0.0,0.0,90,0.02,,,0.06,11.00,VWS V14.01,2013-01-11 13:43:00,
2013-01-11 08:48:00,43.5,40.8,30.27,NNE,26,0.0,0.0,90,0.02,,,0.07,19.00,VWS V14.01,2013-01-11 13:48:00,
2013-01-11 08:53:00,43.5,41.0,30.27,NNE,26,0.0,0.0,91,0.02,,,0.07,18.00,VWS V14.01,2013-01-11 13:53:00,
2013-01-11 08:58:00,43.6,41.2,30.27,NNE,26,0.0,0.0,91,0.03,,,0.08,26.00,VWS V14.01,2013-01-11 13:58:00,
2013-01-11 09:03:00,43.6,41.2,30.26,NNE,26,0.0,0.0,91,0.04,,,0.09,21.00,VWS V14.01,2013-01-11 14:03:00,
2013-01-11 09:07:00,43.5,41.0,30.26,NNE,26,0.0,0.0,91,0.05,,,0.10,16.00,VWS V14.01,2013-01-11 14:07:00,
2013-01-11 09:12:00,43.6,41.4,30.26,NNW,330,2.0,4.0,92,0.05,,,0.11,11.00,VWS V14.01,2013-01-11 14:12:00,
2013-01-11 09:17:00,43.5,41.3,30.26,NNW,338,0.0,0.0,92,0.05,,,0.11,21.00,VWS V14.01,2013-01-11 14:17:00,
2013-01-11 09:22:00,43.5,41.3,30.26,NNW,338,0.0,1.0,92,0.06,,,0.12,39.00,VWS V14.01,2013-01-11 14:22:00,
2013-01-11 09:27:00,43.6,41.4,30.26,NE,38,0.0,0.0,92,0.07,,,0.13,37.00,VWS V14.01,2013-01-11 14:27:00,
2013-01-11 09:32:00,43.8,41.6,30.26,NNE,29,0.0,0.0,92,0.08,,,0.14,26.00,VWS V14.01,2013-01-11 14:32:00,
2013-01-11 09:37:00,43.8,41.6,30.26,NNE,29,0.0,0.0,92,0.08,,,0.14,49.00,VWS V14.01,2013-01-11 14:37:00,
2013-01-11 09:42:00,43.8,41.6,30.26,NNE,29,0.0,0.0,92,0.08,,,0.14,33.00,VWS V14.01,2013-01-11 14:42:00,
2013-01-11 09:47:00,43.8,41.6,30.26,NNE,29,0.0,0.0,92,0.08,,,0.15,30.00,VWS V14.01,2013-01-11 14:47:00,
2013-01-11 09:52:00,43.9,41.7,30.26,NNE,29,0.0,0.0,92,0.09,,,0.16,37.00,VWS V14.01,2013-01-11 14:52:00,
2013-01-11 09:57:00,44.1,41.9,30.26,NNE,27,0.0,0.0,92,0.09,,,0.17,40.00,VWS V14.01,2013-01-11 14:57:00,
2013-01-11 10:02:00,44.1,42.2,30.26,NNE,27,0.0,0.0,93,0.09,,,0.18,56.00,VWS V14.01,2013-01-11 15:02:00,
2013-01-11 10:07:00,44.2,42.3,30.26,NNE,27,0.0,0.0,93,0.08,,,0.18,54.00,VWS V14.01,2013-01-11 15:07:00,
2013-01-11 10:12:00,44.3,42.4,30.26,NNE,27,0.0,0.0,93,0.08,,,0.19,65.00,VWS V14.01,2013-01-11 15:12:00,
2013-01-11 10:17:00,44.5,42.6,30.26,NNE,27,0.0,0.0,93,0.08,,,0.19,60.00,VWS V14.01,2013-01-11 15:17:00,
2013-01-11 10:22:00,44.6,42.7,30.26,NNE,27,0.0,0.0,93,0.08,,,0.20,76.00,VWS V14.01,2013-01-11 15:22:00,
2013-01-11 10:27:00,44.6,42.7,30.26,NNE,27,0.0,0.0,93,0.08,,,0.21,91.00,VWS V14.01,2013-01-11 15:27:00,
2013-01-11 10:32:00,44.8,42.9,30.25,North,0,4.0,4.0,93,0.07,,,0.21,83.00,VWS V14.01,2013-01-11 15:32:00,
2013-01-11 10:37:00,45.1,43.2,30.25,North,0,0.0,0.0,93,0.08,,,0.22,120.00,VWS V14.01,2013-01-11 15:37:00,
2013-01-11 10:42:00,45.2,43.6,30.25,North,0,0.0,0.0,94,0.08,,,0.22,97.00,VWS V14.01,2013-01-11 15:42:00,
2013-01-11 10:47:00,45.4,43.8,30.25,NNE,20,0.0,0.0,94,0.07,,,0.22,76.00,VWS V14.01,2013-01-11 15:47:00,
2013-01-11 10:52:00,45.5,43.9,30.25,NNE,33,3.0,3.0,94,0.06,,,0.22,70.00,VWS V14.01,2013-01-11 15:52:00,
2013-01-11 10:57:00,45.5,43.9,30.25,NNE,14,0.0,0.0,94,0.05,,,0.22,56.00,VWS V14.01,2013-01-11 15:57:00,
2013-01-11 11:02:00,45.5,43.9,30.24,North,8,0.0,0.0,94,0.05,,,0.22,32.00,VWS V14.01,2013-01-11 16:02:00,
2013-01-11 11:07:00,45.5,43.9,30.24,North,4,0.0,0.0,94,0.04,,,0.22,28.00,VWS V14.01,2013-01-11 16:07:00,
2013-01-11 11:12:00,45.5,43.9,30.24,NW,306,0.0,0.0,94,0.03,,,0.22,49.00,VWS V14.01,2013-01-11 16:12:00,
2013-01-11 11:17:00,45.5,43.9,30.23,NW,307,0.0,0.0,94,0.03,,,0.22,44.00,VWS V14.01,2013-01-11 16:17:00,
2013-01-11 11:22:00,45.7,44.1,30.23,NW,307,0.0,0.0,94,0.02,,,0.22,95.00,VWS V14.01,2013-01-11 16:22:00,
2013-01-11 11:27:00,45.8,44.2,30.23,NW,307,1.0,1.0,94,0.01,,,0.22,123.00,VWS V14.01,2013-01-11 16:27:00,
2013-01-11 11:32:00,46.1,44.5,30.21,NNE,19,0.0,0.0,94,0.01,,,0.22,128.00,VWS V14.01,2013-01-11 16:32:00,
2013-01-11 11:37:00,46.4,44.8,30.21,NNE,20,0.0,0.0,94,0.00,,,0.22,156.00,VWS V14.01,2013-01-11 16:37:00,
2013-01-11 11:42:00,46.5,44.9,30.21,NNE,20,0.0,0.0,94,0.00,,,0.22,165.00,VWS V14.01,2013-01-11 16:42:00,
2013-01-11 11:47:00,46.8,45.2,30.20,NNE,20,0.0,1.0,94,0.00,,,0.22,141.00,VWS V14.01,2013-01-11 16:47:00,
2013-01-11 11:52:00,47.0,45.4,30.20,NNE,20,1.0,1.0,94,0.00,,,0.22,125.00,VWS V14.01,2013-01-11 16:52:00,
2013-01-11 11:57:00,47.4,45.8,30.20,NNE,20,2.0,3.0,94,0.00,,,0.22,128.00,VWS V14.01,2013-01-11 16:57:00,
2013-01-11 12:02:00,47.6,46.0,30.18,NNE,20,0.0,0.0,94,0.00,,,0.22,109.00,VWS V14.01,2013-01-11 17:02:00,
2013-01-11 12:07:00,47.6,46.0,30.18,NNE,20,0.0,0.0,94,0.00,,,0.22,132.00,VWS V14.01,2013-01-11 17:07:00,
2013-01-11 12:12:00,47.7,46.1,30.18,NNE,20,0.0,0.0,94,0.00,,,0.22,120.00,VWS V14.01,2013-01-11 17:12:00,
2013-01-11 12:17:00,47.9,46.3,30.17,NNE,20,0.0,0.0,94,0.00,,,0.22,62.00,VWS V14.01,2013-01-11 17:17:00,
2013-01-11 12:22:00,48.0,46.4,30.17,NNE,20,0.0,0.0,94,0.00,,,0.22,65.00,VWS V14.01,2013-01-11 17:22:00,
2013-01-11 12:27:00,48.0,46.4,30.17,NNE,20,0.0,0.0,94,0.00,,,0.22,60.00,VWS V14.01,2013-01-11 17:27:00,
2013-01-11 12:32:00,48.2,46.3,30.17,NNE,20,0.0,0.0,93,0.00,,,0.22,47.00,VWS V14.01,2013-01-11 17:32:00,
2013-01-11 12:37:00,48.2,46.3,30.17,NNE,20,0.0,0.0,93,0.00,,,0.22,54.00,VWS V14.01,2013-01-11 17:37:00,
2013-01-11 12:42:00,48.2,46.3,30.17,NNE,20,0.0,0.0,93,0.00,,,0.22,72.00,VWS V14.01,2013-01-11 17:42:00,
2013-01-11 12:47:00,48.2,46.3,30.17,NNE,20,0.0,0.0,93,0.00,,,0.22,72.00,VWS V14.01,2013-01-11 17:47:00,
2013-01-11 12:52:00,48.2,46.3,30.17,NNE,20,0.0,0.0,93,0.00,,,0.22,70.00,VWS V14.01,2013-01-11 17:52:00,
2013-01-11 12:57:00,48.3,46.4,30.17,NNE,20,0.0,0.0,93,0.00,,,0.22,65.00,VWS V14.01,2013-01-11 17:57:00,
2013-01-11 13:02:00,48.3,46.4,30.16,NNE,20,0.0,0.0,93,0.00,,,0.22,72.00,VWS V14.01,2013-01-11 18:02:00,
2013-01-11 13:07:00,48.5,46.6,30.16,NNE,20,0.0,0.0,93,0.00,,,0.22,60.00,VWS V14.01,2013-01-11 18:07:00,
2013-01-11 13:12:00,48.5,46.6,30.16,NNE,20,0.0,0.0,93,0.00,,,0.22,95.00,VWS V14.01,2013-01-11 18:12:00,
2013-01-11 13:17:00,48.8,46.9,30.14,NNE,20,0.0,0.0,93,0.00,,,0.22,118.00,VWS V14.01,2013-01-11 18:17:00,
2013-01-11 13:22:00,48.9,47.0,30.14,NNE,20,2.0,2.0,93,0.00,,,0.22,116.00,VWS V14.01,2013-01-11 18:22:00,
2013-01-11 13:27:00,49.1,47.2,30.14,NNE,20,2.0,2.0,93,0.00,,,0.22,104.00,VWS V14.01,2013-01-11 18:27:00,
2013-01-11 13:32:00,49.1,46.9,30.14,NNE,20,0.0,0.0,92,0.00,,,0.22,95.00,VWS V14.01,2013-01-11 18:32:00,
2013-01-11 13:37:00,49.2,47.0,30.14,NNE,20,0.0,0.0,92,0.00,,,0.22,91.00,VWS V14.01,2013-01-11 18:37:00,
2013-01-11 13:42:00,49.4,47.2,30.14,NNE,20,0.0,0.0,92,0.00,,,0.22,128.00,VWS V14.01,2013-01-11 18:42:00,
2013-01-11 13:47:00,49.4,47.2,30.12,NNE,20,2.0,2.0,92,0.00,,,0.22,100.00,VWS V14.01,2013-01-11 18:47:00,
2013-01-11 13:52:00,49.5,47.3,30.12,NNE,20,0.0,0.0,92,0.00,,,0.22,72.00,VWS V14.01,2013-01-11 18:52:00,
2013-01-11 13:57:00,49.6,47.4,30.12,NNE,20,0.0,0.0,92,0.00,,,0.22,102.00,VWS V14.01,2013-01-11 18:57:00,
2013-01-11 14:02:00,49.6,47.4,30.12,NNE,20,0.0,0.0,92,0.00,,,0.22,125.00,VWS V14.01,2013-01-11 19:02:00,
2013-01-11 14:07:00,49.8,47.6,30.12,NNE,20,0.0,0.0,92,0.00,,,0.22,114.00,VWS V14.01,2013-01-11 19:07:00,
2013-01-11 14:12:00,49.9,47.7,30.12,NNE,20,0.0,0.0,92,0.00,,,0.22,107.00,VWS V14.01,2013-01-11 19:12:00,
2013-01-11 14:17:00,50.1,47.9,30.12,NNE,20,0.0,0.0,92,0.00,,,0.22,123.00,VWS V14.01,2013-01-11 19:17:00,
2013-01-11 14:22:00,50.4,48.2,30.12,NNE,20,0.0,0.0,92,0.00,,,0.22,127.00,VWS V14.01,2013-01-11 19:22:00,
2013-01-11 14:27:00,50.5,48.3,30.12,NNE,20,2.0,2.0,92,0.00,,,0.22,93.00,VWS V14.01,2013-01-11 19:27:00,
2013-01-11 14:32:00,50.5,48.3,30.11,NNE,21,0.0,0.0,92,0.00,,,0.22,105.00,VWS V14.01,2013-01-11 19:32:00,
2013-01-11 14:37:00,50.7,48.5,30.11,NNE,21,0.0,0.0,92,0.00,,,0.22,109.00,VWS V14.01,2013-01-11 19:37:00,
2013-01-11 14:42:00,50.8,48.6,30.11,NNE,21,0.0,0.0,92,0.00,,,0.22,111.00,VWS V14.01,2013-01-11 19:42:00,
2013-01-11 14:47:00,51.0,48.8,30.11,NNE,21,0.0,0.0,92,0.00,,,0.22,107.00,VWS V14.01,2013-01-11 19:47:00,
2013-01-11 14:52:00,51.1,48.9,30.11,NNE,21,0.0,0.0,92,0.00,,,0.22,91.00,VWS V14.01,2013-01-11 19:52:00,
2013-01-11 14:57:00,51.1,48.9,30.11,NNE,21,0.0,0.0,92,0.00,,,0.22,77.00,VWS V14.01,2013-01-11 19:57:00,
2013-01-11 15:02:00,51.1,48.9,30.11,NNE,21,0.0,0.0,92,0.00,,,0.22,91.00,VWS V14.01,2013-01-11 20:02:00,
2013-01-11 15:07:00,51.3,49.1,30.11,NNE,21,0.0,0.0,92,0.00,,,0.22,93.00,VWS V14.01,2013-01-11 20:07:00,
2013-01-11 15:12:00,51.3,48.8,30.11,NNE,21,0.0,0.0,91,0.00,,,0.22,77.00,VWS V14.01,2013-01-11 20:12:00,
2013-01-11 15:17:00,51.3,48.8,30.11,NNE,21,0.0,0.0,91,0.00,,,0.22,63.00,VWS V14.01,2013-01-11 20:17:00,
2013-01-11 15:22:00,51.3,48.8,30.11,NNE,21,0.0,0.0,91,0.00,,,0.22,81.00,VWS V14.01,2013-01-11 20:22:00,
2013-01-11 15:27:00,51.3,48.8,30.11,NNE,22,3.0,4.0,91,0.00,,,0.22,72.00,VWS V14.01,2013-01-11 20:27:00,
2013-01-11 15:32:00,51.3,48.8,30.10,NNE,22,0.0,0.0,91,0.00,,,0.22,81.00,VWS V14.01,2013-01-11 20:32:00,
2013-01-11 15:37:00,51.3,49.1,30.10,NNE,22,0.0,0.0,92,0.00,,,0.22,86.00,VWS V14.01,2013-01-11 20:37:00,
2013-01-11 15:42:00,51.4,49.2,30.10,NNE,22,2.0,3.0,92,0.00,,,0.22,91.00,VWS V14.01,2013-01-11 20:42:00,
2013-01-11 15:47:00,51.6,49.4,30.09,NNE,22,3.0,3.0,92,0.00,,,0.22,56.00,VWS V14.01,2013-01-11 20:47:00,
2013-01-11 15:52:00,51.6,49.4,30.09,NNE,22,0.0,0.0,92,0.00,,,0.22,70.00,VWS V14.01,2013-01-11 20:52:00,
2013-01-11 15:57:00,51.7,49.5,30.09,South,178,0.0,4.0,92,0.00,,,0.22,54.00,VWS V14.01,2013-01-11 20:57:00,
2013-01-11 16:02:00,51.6,49.4,30.09,South,178,0.0,0.0,92,0.00,,,0.22,35.00,VWS V14.01,2013-01-11 21:02:00,
2013-01-11 16:07:00,51.7,49.5,30.09,South,178,2.0,3.0,92,0.00,,,0.22,23.00,VWS V14.01,2013-01-11 21:07:00,
2013-01-11 16:12:00,51.7,49.5,30.09,South,178,0.0,0.0,92,0.00,,,0.22,23.00,VWS V14.01,2013-01-11 21:12:00,
2013-01-11 16:17:00,51.7,49.5,30.10,South,178,0.0,0.0,92,0.00,,,0.22,18.00,VWS V14.01,2013-01-11 21:17:00,
2013-01-11 16:22:00,51.7,49.5,30.10,South,178,0.0,0.0,92,0.00,,,0.22,18.00,VWS V14.01,2013-01-11 21:22:00,
2013-01-11 16:27:00,51.7,49.8,30.10,South,178,0.0,0.0,93,0.00,,,0.22,23.00,VWS V14.01,2013-01-11 21:27:00,
2013-01-11 16:32:00,51.7,49.8,30.09,South,178,0.0,0.0,93,0.00,,,0.22,26.00,VWS V14.01,2013-01-11 21:32:00,
2013-01-11 16:37:00,51.9,49.9,30.09,South,178,0.0,0.0,93,0.00,,,0.22,25.00,VWS V14.01,2013-01-11 21:37:00,
2013-01-11 16:42:00,51.9,49.9,30.09,South,178,0.0,0.0,93,0.00,,,0.22,14.00,VWS V14.01,2013-01-11 21:42:00,
2013-01-11 16:47:00,51.9,49.9,30.08,South,178,0.0,0.0,93,0.00,,,0.22,11.00,VWS V14.01,2013-01-11 21:47:00,
2013-01-11 16:52:00,51.9,49.9,30.08,South,178,0.0,2.0,93,0.00,,,0.22,11.00,VWS V14.01,2013-01-11 21:52:00,
2013-01-11 16:57:00,51.9,49.9,30.08,South,178,0.0,0.0,93,0.00,,,0.22,9.00,VWS V14.01,2013-01-11 21:57:00,
2013-01-11 17:02:00,51.9,49.9,30.08,South,178,0.0,0.0,93,0.00,,,0.22,9.00,VWS V14.01,2013-01-11 22:02:00,
2013-01-11 17:07:00,51.9,49.9,30.08,South,178,0.0,0.0,93,0.00,,,0.22,7.00,VWS V14.01,2013-01-11 22:07:00,
2013-01-11 17:12:00,51.9,50.2,30.08,South,178,0.0,0.0,94,0.00,,,0.22,0.00,VWS V14.01,2013-01-11 22:12:00,
2013-01-11 17:17:00,51.9,50.2,30.09,South,178,0.0,0.0,94,0.00,,,0.22,0.00,VWS V14.01,2013-01-11 22:17:00,
2013-01-11 17:22:00,51.9,50.2,30.09,South,178,0.0,0.0,94,0.00,,,0.22,0.00,VWS V14.01,2013-01-11 22:22:00,
2013-01-11 17:27:00,51.9,50.2,30.09,South,178,0.0,0.0,94,0.00,,,0.22,0.00,VWS V14.01,2013-01-11 22:27:00,
2013-01-11 17:32:00,51.7,50.0,30.09,South,178,0.0,0.0,94,0.00,,,0.22,0.00,VWS V14.01,2013-01-11 22:32:00,
2013-01-11 17:37:00,51.7,50.0,30.09,South,178,0.0,0.0,94,0.00,,,0.22,0.00,VWS V14.01,2013-01-11 22:37:00,
2013-01-11 17:42:00,51.7,50.0,30.09,South,178,0.0,0.0,94,0.00,,,0.22,0.00,VWS V14.01,2013-01-11 22:42:00,
2013-01-11 17:47:00,51.7,50.0,30.09,South,178,0.0,0.0,94,0.00,,,0.22,0.00,VWS V14.01,2013-01-11 22:47:00,
2013-01-11 17:52:00,51.7,50.0,30.09,South,178,0.0,0.0,94,0.00,,,0.22,0.00,VWS V14.01,2013-01-11 22:52:00,
2013-01-11 17:57:00,51.9,50.2,30.09,South,178,0.0,0.0,94,0.00,,,0.22,0.00,VWS V14.01,2013-01-11 22:57:00,
2013-01-11 18:02:00,51.9,50.2,30.09,South,178,0.0,0.0,94,0.00,,,0.22,0.00,VWS V14.01,2013-01-11 23:02:00,
2013-01-11 18:07:00,51.9,50.2,30.09,South,178,0.0,0.0,94,0.00,,,0.22,0.00,VWS V14.01,2013-01-11 23:07:00,
2013-01-11 18:12:00,51.9,50.2,30.09,South,178,0.0,0.0,94,0.00,,,0.22,0.00,VWS V14.01,2013-01-11 23:12:00,
2013-01-11 18:17:00,51.9,50.2,30.09,South,178,0.0,0.0,94,0.00,,,0.22,0.00,VWS V14.01,2013-01-11 23:17:00,
2013-01-11 18:22:00,51.9,50.2,30.09,South,178,0.0,0.0,94,0.00,,,0.22,0.00,VWS V14.01,2013-01-11 23:22:00,
2013-01-11 18:27:00,51.9,50.5,30.09,South,178,0.0,0.0,95,0.00,,,0.22,0.00,VWS V14.01,2013-01-11 23:27:00,
2013-01-11 18:32:00,51.9,50.5,30.09,South,178,0.0,0.0,95,0.00,,,0.22,0.00,VWS V14.01,2013-01-11 23:32:00,
2013-01-11 18:37:00,51.9,50.5,30.09,South,178,0.0,1.0,95,0.00,,,0.22,0.00,VWS V14.01,2013-01-11 23:37:00,
2013-01-11 18:42:00,51.9,50.5,30.09,South,178,0.0,0.0,95,0.00,,,0.22,0.00,VWS V14.01,2013-01-11 23:42:00,
2013-01-11 18:47:00,52.0,50.6,30.09,South,178,0.0,0.0,95,0.00,,,0.22,0.00,VWS V14.01,2013-01-11 23:47:00,
2013-01-11 18:52:00,52.0,50.6,30.09,South,178,0.0,2.0,95,0.00,,,0.22,0.00,VWS V14.01,2013-01-11 23:52:00,
2013-01-11 18:57:00,52.2,50.8,30.09,South,178,0.0,0.0,95,0.00,,,0.22,0.00,VWS V14.01,2013-01-11 23:57:00,
2013-01-11 19:02:00,52.2,50.8,30.08,South,178,0.0,0.0,95,0.00,,,0.22,0.00,VWS V14.01,2013-01-12 00:02:00,
2013-01-11 19:07:00,52.2,50.8,30.08,South,178,0.0,0.0,95,0.00,,,0.22,0.00,VWS V14.01,2013-01-12 00:07:00,
2013-01-11 19:12:00,52.2,50.8,30.08,South,178,0.0,0.0,95,0.00,,,0.22,0.00,VWS V14.01,2013-01-12 00:12:00,
2013-01-11 19:17:00,52.0,50.6,30.08,South,178,0.0,0.0,95,0.00,,,0.22,0.00,VWS V14.01,2013-01-12 00:17:00,
2013-01-11 19:22:00,51.9,50.5,30.08,South,178,0.0,0.0,95,0.00,,,0.22,0.00,VWS V14.01,2013-01-12 00:22:00,
2013-01-11 19:27:00,51.9,50.5,30.08,South,178,0.0,0.0,95,0.00,,,0.22,0.00,VWS V14.01,2013-01-12 00:27:00,
2013-01-11 19:32:00,51.7,50.3,30.08,South,178,0.0,0.0,95,0.00,,,0.22,0.00,VWS V14.01,2013-01-12 00:32:00,
2013-01-11 19:37:00,51.7,50.3,30.08,South,178,0.0,0.0,95,0.00,,,0.22,0.00,VWS V14.01,2013-01-12 00:37:00,
2013-01-11 19:42:00,51.7,50.3,30.08,South,178,0.0,0.0,95,0.00,,,0.22,0.00,VWS V14.01,2013-01-12 00:42:00,
2013-01-11 19:47:00,51.9,50.5,30.09,South,178,0.0,0.0,95,0.00,,,0.22,0.00,VWS V14.01,2013-01-12 00:47:00,
2013-01-11 19:52:00,51.9,50.5,30.09,South,178,0.0,0.0,95,0.00,,,0.22,0.00,VWS V14.01,2013-01-12 00:52:00,
2013-01-11 19:57:00,51.9,50.5,30.09,South,178,0.0,0.0,95,0.00,,,0.22,0.00,VWS V14.01,2013-01-12 00:57:00,
2013-01-11 20:02:00,51.9,50.5,30.09,South,178,0.0,0.0,95,0.00,,,0.22,0.00,VWS V14.01,2013-01-12 01:02:00,
2013-01-11 20:07:00,51.9,50.5,30.09,South,178,1.0,1.0,95,0.00,,,0.22,0.00,VWS V14.01,2013-01-12 01:07:00,
2013-01-11 20:12:00,52.0,50.6,30.09,South,178,0.0,0.0,95,0.00,,,0.22,0.00,VWS V14.01,2013-01-12 01:12:00,
2013-01-11 20:17:00,52.0,50.6,30.07,South,178,0.0,0.0,95,0.00,,,0.22,0.00,VWS V14.01,2013-01-12 01:17:00,
2013-01-11 20:22:00,52.2,50.8,30.07,South,178,0.0,0.0,95,0.00,,,0.22,0.00,VWS V14.01,2013-01-12 01:22:00,
2013-01-11 20:27:00,52.2,50.8,30.07,South,178,0.0,0.0,95,0.00,,,0.22,0.00,VWS V14.01,2013-01-12 01:27:00,
2013-01-11 20:32:00,52.0,50.6,30.08,South,178,0.0,0.0,95,0.00,,,0.22,0.00,VWS V14.01,2013-01-12 01:32:00,
2013-01-11 20:37:00,52.0,50.6,30.08,South,178,0.0,0.0,95,0.00,,,0.22,0.00,VWS V14.01,2013-01-12 01:37:00,
2013-01-11 20:42:00,52.0,50.6,30.08,South,178,0.0,0.0,95,0.00,,,0.22,0.00,VWS V14.01,2013-01-12 01:42:00,
2013-01-11 20:47:00,52.0,50.6,30.07,South,178,0.0,0.0,95,0.00,,,0.22,0.00,VWS V14.01,2013-01-12 01:47:00,
2013-01-11 20:52:00,52.0,50.9,30.07,South,178,0.0,0.0,96,0.00,,,0.22,0.00,VWS V14.01,2013-01-12 01:52:00,
2013-01-11 20:57:00,52.2,51.1,30.07,South,178,0.0,0.0,96,0.00,,,0.22,0.00,VWS V14.01,2013-01-12 01:57:00,
2013-01-11 21:02:00,52.2,51.1,30.07,South,178,0.0,0.0,96,0.00,,,0.22,0.00,VWS V14.01,2013-01-12 02:02:00,
2013-01-11 21:07:00,52.2,51.1,30.07,South,178,0.0,3.0,96,0.00,,,0.22,0.00,VWS V14.01,2013-01-12 02:07:00,
2013-01-11 21:12:00,52.3,51.2,30.07,South,178,0.0,0.0,96,0.00,,,0.22,0.00,VWS V14.01,2013-01-12 02:12:00,
2013-01-11 21:17:00,52.6,51.5,30.09,NNW,348,3.0,3.0,96,0.00,,,0.22,0.00,VWS V14.01,2013-01-12 02:17:00,
2013-01-11 21:22:00,52.6,51.5,30.09,NNW,348,0.0,0.0,96,0.00,,,0.22,0.00,VWS V14.01,2013-01-12 02:22:00,
2013-01-11 21:27:00,52.6,51.5,30.09,NNW,348,0.0,0.0,96,0.00,,,0.22,0.00,VWS V14.01,2013-01-12 02:27:00,
2013-01-11 21:32:00,52.6,51.5,30.09,NNW,348,0.0,0.0,96,0.00,,,0.22,0.00,VWS V14.01,2013-01-12 02:32:00,
2013-01-11 21:37:00,52.6,51.5,30.09,NW,315,3.0,3.0,96,0.00,,,0.22,0.00,VWS V14.01,2013-01-12 02:37:00,
2013-01-11 21:42:00,52.2,50.8,30.09,NW,315,0.0,1.0,95,0.00,,,0.22,0.00,VWS V14.01,2013-01-12 02:42:00,
2013-01-11 21:47:00,51.7,50.3,30.08,NW,315,0.0,0.0,95,0.00,,,0.22,0.00,VWS V14.01,2013-01-12 02:47:00,
2013-01-11 21:52:00,51.4,50.0,30.08,NW,315,0.0,0.0,95,0.00,,,0.22,0.00,VWS V14.01,2013-01-12 02:52:00,
2013-01-11 21:57:00,51.3,50.2,30.08,NW,315,0.0,0.0,96,0.00,,,0.22,0.00,VWS V14.01,2013-01-12 02:57:00,
2013-01-11 22:02:00,51.1,49.7,30.08,NW,315,0.0,0.0,95,0.00,,,0.22,0.00,VWS V14.01,2013-01-12 03:02:00,
2013-01-11 22:07:00,51.0,49.9,30.08,NW,315,0.0,0.0,96,0.00,,,0.22,0.00,VWS V14.01,2013-01-12 03:07:00,
2013-01-11 22:12:00,51.0,49.9,30.08,NW,315,0.0,0.0,96,0.00,,,0.22,0.00,VWS V14.01,2013-01-12 03:12:00,
2013-01-11 22:17:00,50.8,49.7,30.07,NW,315,0.0,0.0,96,0.00,,,0.22,0.00,VWS V14.01,2013-01-12 03:17:00,
2013-01-11 22:22:00,50.8,49.7,30.07,NW,315,0.0,0.0,96,0.00,,,0.22,0.00,VWS V14.01,2013-01-12 03:22:00,
2013-01-11 22:27:00,50.8,49.7,30.07,NW,315,0.0,0.0,96,0.00,,,0.22,0.00,VWS V14.01,2013-01-12 03:27:00,
2013-01-11 22:32:00,50.8,49.7,30.07,NW,315,0.0,0.0,96,0.00,,,0.22,0.00,VWS V14.01,2013-01-12 03:32:00,
2013-01-11 22:37:00,50.8,49.7,30.07,NW,315,0.0,0.0,96,0.00,,,0.22,0.00,VWS V14.01,2013-01-12 03:37:00,
2013-01-11 22:42:00,50.8,49.7,30.07,NW,315,0.0,0.0,96,0.00,,,0.22,0.00,VWS V14.01,2013-01-12 03:42:00,
2013-01-11 22:47:00,50.8,49.7,30.06,NW,315,0.0,0.0,96,0.00,,,0.22,0.00,VWS V14.01,2013-01-12 03:47:00,
2013-01-11 22:52:00,51.1,50.0,30.06,West,263,1.0,4.0,96,0.00,,,0.22,0.00,VWS V14.01,2013-01-12 03:52:00,
2013-01-11 22:57:00,51.4,50.3,30.06,WSW,240,4.0,4.0,96,0.00,,,0.22,0.00,VWS V14.01,2013-01-12 03:57:00,
2013-01-11 23:02:00,51.7,50.6,30.06,WSW,242,3.0,4.0,96,0.00,,,0.22,0.00,VWS V14.01,2013-01-12 04:02:00,
2013-01-11 23:07:00,51.7,50.6,30.06,WSW,242,0.0,1.0,96,0.00,,,0.22,0.00,VWS V14.01,2013-01-12 04:07:00,
2013-01-11 23:12:00,51.7,50.6,30.06,WSW,242,0.0,0.0,96,0.00,,,0.22,0.00,VWS V14.01,2013-01-12 04:12:00,
2013-01-11 23:17:00,51.7,50.6,30.06,WSW,242,0.0,0.0,96,0.00,,,0.22,0.00,VWS V14.01,2013-01-12 04:17:00,
2013-01-11 23:22:00,51.7,50.6,30.06,WSW,242,0.0,0.0,96,0.00,,,0.22,0.00,VWS V14.01,2013-01-12 04:22:00,
2013-01-11 23:27:00,51.7,50.6,30.06,WSW,242,0.0,0.0,96,0.00,,,0.22,0.00,VWS V14.01,2013-01-12 04:27:00,
2013-01-11 23:32:00,51.7,50.6,30.06,WSW,242,0.0,0.0,96,0.00,,,0.22,0.00,VWS V14.01,2013-01-12 04:32:00,
2013-01-11 23:37:00,51.7,50.6,30.06,WSW,242,0.0,0.0,96,0.00,,,0.22,0.00,VWS V14.01,2013-01-12 04:37:00,
2013-01-11 23:42:00,51.7,50.6,30.06,WSW,242,2.0,2.0,96,0.00,,,0.22,0.00,VWS V14.01,2013-01-12 04:42:00,
2013-01-11 23:47:00,51.7,50.6,30.06,WSW,242,0.0,3.0,96,0.00,,,0.22,0.00,VWS V14.01,2013-01-12 04:47:00,
2013-01-11 23:52:00,51.9,50.8,30.06,WSW,242,0.0,4.0,96,0.00,,,0.22,0.00,VWS V14.01,2013-01-12 04:52:00,
2013-01-11 23:57:00,51.9,50.8,30.06,WSW,242,0.0,0.0,96,0.00,,,0.22,0.00,VWS V14.01,2013-01-12 04:57:00,